x

Smith Island, Wa (sisw1) Weather Station

1:00pm - Mon 5th Dec 2016 All times are PST. -8 hours from GMT.

  • Wind
    17mph, 18mph gusts
  • Air Temp 42°f
  • Sea Pressure 1016.6mb
  • Smith Island, Wa
  • Smith Island, Wa

More Historic Weather Station data

Upgrade to MSW Pro to gain access to the past 30 days of data for over 8000 Wavebouys and Weather Stations around the globe.

Join Pro

Comparision Forecast

View Surf forecast
   
Mon 12/05 1:00pm 17 18 mph 1016.6mb 42f
12:00pm 18 21 mph 1016.7mb 41f
11:00am 22 24 mph 1016.9mb 40f
10:00am 21 23 mph 1016.8mb 40f
9:00am 17 20 mph 1017.1mb 38f
8:00am 22 24 mph 1016.9mb 39f
7:00am 25 29 mph 1017.1mb 39f
6:00am 21 22 mph 1017mb 39f
5:00am 21 23 mph 1017.5mb 38f
4:00am 21 24 mph 1018.3mb 39f
3:00am 21 23 mph 1018.8mb 39f
2:00am 21 22 mph 1019.3mb 39f
1:00am 15 17 mph 1019.3mb 42f
12:00am 15 21 mph 1019.6mb 42f
Sun 12/04 11:00pm 17 21 mph 1019.7mb 42f
10:00pm 15 24 mph 1019.4mb 43f
9:00pm 18 25 mph 1018.9mb 43f
8:00pm 26 30 mph 1018.6mb 44f
7:00pm 26 33 mph 1018.5mb 44f
6:00pm 29 32 mph 1018.3mb 45f
5:00pm 28 32 mph 1018.1mb 45f
4:00pm 11 14 mph 1018.3mb 45f
3:00pm 9 13 mph 1018mb 45f
2:00pm 10 14 mph 1017.7mb 45f
1:00pm 11 15 mph 1017.6mb 44f
12:00pm 16 22 mph 1017.5mb 45f
11:00am 16 22 mph 1017.1mb 44f
10:00am 17 20 mph 1016.7mb 44f
9:00am 15 21 mph 1016mb 43f
8:00am 13 16 mph 1015.7mb 42f
7:00am 17 21 mph 1015.2mb 43f
6:00am 32 36 mph 1014.5mb 44f
5:00am 33 38 mph 1014.5mb 44f
4:00am 31 46 mph 1014mb 44f
3:00am 25 34 mph 1015mb 44f
2:00am 20 31 mph 1015.3mb 44f
1:00am 23 37 mph 1016mb 44f
12:00am 22 28 mph 1016.8mb 44f
Sat 12/03 11:00pm 26 31 mph 1017.4mb 44f
10:00pm 15 28 mph 1018mb 45f
9:00pm 22 29 mph 1018.2mb 45f
8:00pm 16 21 mph 1018.7mb 45f
7:00pm 9 11 mph 1019.6mb 45f
6:00pm  -  2 mph 1019.8mb 46f
5:00pm 3 5 mph 1020.7mb 46f
4:00pm 8 11 mph 1021.9mb 46f
3:00pm 11 14 mph 1022.2mb 46f
2:00pm 13
mph
1023.3mb 46f
1:00pm 13 14 mph 1024.1mb 46f
12:00pm 14 17 mph 1024.1mb 46f
11:00am 15 16 mph 1024.7mb 46f
10:00am 16 17 mph 1024.4mb 46f
9:00am 15 17 mph 1024.5mb 47f
8:00am 7 9 mph 1024.3mb 49f
7:00am 17 21 mph 1024mb 49f
6:00am 21 26 mph 1023.3mb 48f
5:00am 16 21 mph 1023.3mb 49f
4:00am 17 22 mph 1023mb 49f
3:00am 29 37 mph 1022.3mb 47f
2:00am 25 29 mph 1021.9mb 48f
1:00am 21 28 mph 1021.7mb 48f
12:00am 17 26 mph 1021.3mb 49f
Fri 12/02 11:00pm 20 33 mph 1019.9mb 49f
10:00pm 22 30 mph 1019.8mb 49f
9:00pm 24 30 mph 1019.1mb 49f
8:00pm 24 31 mph 1018.6mb 50f
7:00pm 33 38 mph 1017.8mb 50f
6:00pm 15 17 mph 1018.4mb 48f
5:00pm 10 11 mph 1018.1mb 48f
4:00pm 20 22 mph 1018.1mb 47f
3:00pm 36 40 mph 1016.5mb 48f
2:00pm 33 38 mph 1016.7mb 48f
1:00pm 33 39 mph 1017.6mb 49f
12:00pm 38 40 mph 1018.6mb 48f
11:00am 37 41 mph 1019.8mb 47f
10:00am 34 38 mph 1020.6mb 47f
9:00am 32 37 mph 1021.4mb 47f
8:00am 28 31 mph 1022.6mb 47f
7:00am 26 30 mph 1023mb 47f
6:00am 23 25 mph 1023.3mb 46f
5:00am 28 31 mph 1023.3mb 46f
4:00am 25 29 mph 1023.9mb 47f
3:00am 20 23 mph 1024.4mb 46f
2:00am 20 23 mph 1025.2mb 46f
1:00am 20 25 mph 1025.3mb 45f
12:00am 22 26 mph 1025.4mb 45f
Thu 12/01 11:00pm 20 22 mph 1025.8mb 45f